Paulistana, Brazil

9:00 PM BRT on August 29, 2016 (GMT -0300)
Carajas | | Change Station

Elev 2037 ft 6.12 °S, 50.00 °W | Updated 2 hours ago

Clear
Clear
73 °F
Feels Like 73 °F
N
0
Wind Variable Wind from North

Today
High -- | Low -- °F
--% Chance of Precip.
Yesterday
High -- | Low -- °F
Precip. -- in
Pressure 29.98 in
Visibility -9999.0 miles
Clouds
Dew Point 70 °F
Humidity 88%
Rainfall 0.00 in
Snow Depth Not available.
5:47 AM 5:43 PM
Waning Crescent, 6% visible
SPECI SBCJ 292130Z 00000KT CAVOK 23/21 Q1015
Pressure 29.98 in
Visibility -9999.0 miles
Clouds
Dew Point 70 °F
Humidity 88%
Rainfall 0.00 in
Snow Depth Not available.
5:47 AM 5:43 PM
Waning Crescent, 6% visible
SPECI SBCJ 292130Z 00000KT CAVOK 23/21 Q1015

10-Day Weather Forecast

No radar image for this location.
×

Almanac

Astronomy

Aug. 29, 2016 Rise Set
Actual Time
Civil Twilight
Nautical Twilight
Astronomical Twilight
Moon
Length of Visible Light
Length of Day
Tomorrow will be .
, % of the Moon is Illuminated

Today's Extremes

Country Highs Country Lows

Community

WunderPhotos

Upload Photos

1,935,695 photos uploaded!

WunderBlog® & News

Nearby

Air Quality

  Air Quality AQ Index Pollutant
Not available.

Snow Depth

Station Depth Elevation

Earthquake Activity

City Distance Mag. Time & Date
Minimum magnitude displayed is 2.5.

Coastal Water Temperatures

Place Temperature

Stations

Nearby Weather Stations

Station Location Temp. Windchill Dew Point Humidity Wind Precip. Elev Updated Type